UDN weather

Udine-Campoformido Air Base
Udine, Friuli-Venezia Giulia, Italy

Public forecast

Using degrees Celsius for public forecast. Weather courtesy of forecast.io.

Closest aviation weather report (METAR) to Udine-Campoformido Air Base

Closest report is Rivolto Air Base, 6.6 nm (12.2 km) WSW. Retrieved 2020/08/06 06:55 UTC (14 minutes ago):

LIPI 060655Z 08003KT 9999 BKN080 23/15 Q1015 RMK BKN VIS MIN 9999 WIND THR06 09003KT WIND THR24 VRB02KT BLU

Closest aviation forecast (TAF) to Udine-Campoformido Air Base

Forecast is more than 12 hours old.

Closest forecast is Rivolto Air Base, 6.6 nm (12.2 km) WSW. Retrieved 2020/01/23 12:24 UTC (7 months ago):

TAF TAF LIPI 231100Z 2312/2324 06010KT CAVOK